Bethel, Wisconsin
Current Conditions -  °F | °C
As of 6:54 PM on Tuesday 27 Jan 2015 (Local Time) from KMFI Reporting Station
Overcast Overcast  
Wind Chill: 19°   Ceiling: 1500
Heat Index: 25°   Visibility: 8mi
Dew Point: 20°   Wind: 5mph
Humidity: 81%   Direction: 140°SE
Pressure: 30.17"   Gusts: NA
Location:  44.5446°N, 90.0354°W
Report Text: KMFI 280054Z AUTO 14004KT 8SM OVC015 M04/M07 A3017 RMK AO2 SLP239 T10391067
Loading
Personal Weather Stations






























Interactive Weather Map New forecast layout! Learn more

10-Day Weather Forecast

Advertisements
Track Severe Weather on mobile